createdAt,value
2022-11-08T00:00:04.793Z,13.99
2022-11-08T00:01:07.257Z,14.15
2022-11-08T00:02:09.862Z,17.32
2022-11-08T00:03:12.455Z,12.25
2022-11-08T00:04:15.026Z,10.47
2022-11-08T00:05:17.429Z,13.71
2022-11-08T00:06:19.994Z,12.29
2022-11-08T00:07:22.348Z,15.99
2022-11-08T00:08:24.709Z,11.55
2022-11-08T00:09:27.161Z,11.09
2022-11-08T00:10:29.899Z,11.78
2022-11-08T00:11:32.417Z,12.68
2022-11-08T00:12:34.778Z,12.87
2022-11-08T00:13:37.137Z,17.32
2022-11-08T00:14:39.597Z,11.87
2022-11-08T00:15:41.981Z,10.67
2022-11-08T00:16:44.536Z,13.08
2022-11-08T00:17:46.910Z,16.64
2022-11-08T00:18:49.369Z,13.00
2022-11-08T00:19:51.791Z,14.84
2022-11-08T00:20:54.658Z,13.39
2022-11-08T00:21:57.017Z,14.73
2022-11-08T00:22:59.475Z,13.99
2022-11-08T00:24:01.827Z,13.83
2022-11-08T00:25:04.183Z,13.60
2022-11-08T00:26:07.382Z,16.70
2022-11-08T00:27:09.745Z,13.12
2022-11-08T00:28:12.108Z,13.52
2022-11-08T00:29:14.463Z,14.32
2022-11-08T00:30:17.133Z,15.21
2022-11-08T00:31:19.643Z,19.85
2022-11-08T00:32:22.121Z,15.69
2022-11-08T00:33:24.477Z,15.76
2022-11-08T00:34:26.836Z,13.66
2022-11-08T00:35:29.194Z,13.37
2022-11-08T00:36:31.992Z,14.33
2022-11-08T00:37:34.449Z,17.85
2022-11-08T00:38:36.804Z,13.22
2022-11-08T00:39:39.267Z,15.61
2022-11-08T00:40:41.925Z,14.01
2022-11-08T00:41:44.419Z,15.85
2022-11-08T00:42:46.878Z,12.17
2022-11-08T00:43:49.335Z,13.25
2022-11-08T00:44:51.692Z,15.45
2022-11-08T00:45:54.055Z,13.21
2022-11-08T00:46:56.741Z,13.23
2022-11-08T00:47:59.193Z,15.14
2022-11-08T00:49:01.548Z,13.09
2022-11-08T00:50:04.104Z,13.32
2022-11-08T00:51:06.570Z,14.41
2022-11-08T00:52:08.951Z,14.87
2022-11-08T00:53:11.322Z,13.88
2022-11-08T00:54:13.757Z,15.04
2022-11-08T00:55:16.118Z,14.61
2022-11-08T00:56:18.979Z,15.21
2022-11-08T00:57:31.006Z,14.33
2022-11-08T00:58:27.724Z,13.48
2022-11-08T00:59:30.014Z,14.43
2022-11-08T01:00:32.680Z,11.43
2022-11-08T01:01:35.226Z,11.81
2022-11-08T01:02:38.390Z,10.91
2022-11-08T01:03:41.030Z,16.48
2022-11-08T01:04:43.490Z,12.86
2022-11-08T01:05:45.958Z,14.27
2022-11-08T01:06:48.737Z,14.71
2022-11-08T01:07:51.247Z,13.47
2022-11-08T01:08:53.708Z,12.51
2022-11-08T01:09:56.169Z,16.45
2022-11-08T01:10:58.732Z,13.80
2022-11-08T01:12:01.195Z,14.03
2022-11-08T01:13:03.702Z,14.69
2022-11-08T01:14:06.170Z,15.69
2022-11-08T01:15:08.683Z,15.33
2022-11-08T01:16:12.718Z,13.25
2022-11-08T01:17:15.198Z,17.39
2022-11-08T01:18:18.086Z,13.67
2022-11-08T01:19:20.759Z,13.44
2022-11-08T01:20:23.423Z,14.81
2022-11-08T01:21:25.789Z,19.81
2022-11-08T01:22:28.250Z,22.14
2022-11-08T01:23:30.632Z,18.18
2022-11-08T01:24:33.090Z,17.89
2022-11-08T01:25:35.447Z,15.68
2022-11-08T01:26:38.216Z,17.42
2022-11-08T01:27:40.574Z,15.32
2022-11-08T01:28:42.983Z,14.23
2022-11-08T01:29:45.348Z,15.23
2022-11-08T01:30:47.914Z,14.54
2022-11-08T01:31:50.381Z,14.22
2022-11-08T01:32:52.843Z,14.56
2022-11-08T01:33:55.359Z,17.52
2022-11-08T01:34:57.824Z,15.83
2022-11-08T01:36:00.298Z,15.04
2022-11-08T01:37:02.759Z,16.28
2022-11-08T01:38:05.220Z,20.01
2022-11-08T01:39:07.738Z,17.75
2022-11-08T01:40:11.428Z,14.28
2022-11-08T01:41:13.889Z,16.32
2022-11-08T01:42:16.347Z,16.11
2022-11-08T01:43:18.721Z,15.67
2022-11-08T01:44:21.218Z,16.40
2022-11-08T01:45:23.675Z,16.42
2022-11-08T01:46:26.544Z,18.81
2022-11-08T01:47:29.009Z,14.40
2022-11-08T01:48:31.382Z,16.55
2022-11-08T01:49:33.877Z,16.57
2022-11-08T01:50:36.550Z,17.02
2022-11-08T01:51:38.912Z,12.37
2022-11-08T01:52:41.377Z,17.11
2022-11-08T01:53:43.838Z,15.40
2022-11-08T01:54:46.332Z,15.91
2022-11-08T01:55:48.795Z,20.17
2022-11-08T01:56:51.253Z,20.59
2022-11-08T01:57:53.616Z,17.61
2022-11-08T01:58:55.980Z,16.26
2022-11-08T01:59:58.394Z,15.61
2022-11-08T02:01:01.125Z,14.99
2022-11-08T02:02:03.804Z,16.05
2022-11-08T02:03:06.402Z,16.61
2022-11-08T02:04:08.848Z,18.42
2022-11-08T02:05:11.344Z,13.21
2022-11-08T02:06:14.417Z,18.09
2022-11-08T02:07:16.775Z,16.99
2022-11-08T02:08:19.507Z,15.00
2022-11-08T02:09:22.107Z,22.07
2022-11-08T02:10:24.835Z,14.88
2022-11-08T02:11:27.198Z,15.27
2022-11-08T02:12:32.162Z,16.11
2022-11-08T02:13:34.658Z,21.19
2022-11-08T02:14:37.022Z,17.20
2022-11-08T02:15:39.518Z,18.14
2022-11-08T02:16:42.003Z,20.40
2022-11-08T02:17:44.367Z,15.17
2022-11-08T02:18:46.733Z,16.05
2022-11-08T02:19:49.211Z,21.33
2022-11-08T02:20:51.814Z,15.79
2022-11-08T02:21:54.300Z,18.93
2022-11-08T02:22:56.768Z,18.19
2022-11-08T02:23:59.232Z,18.13
2022-11-08T02:25:01.688Z,18.45
2022-11-08T02:26:04.201Z,22.75
2022-11-08T02:27:06.666Z,18.42
2022-11-08T02:28:09.130Z,29.20
2022-11-08T02:29:11.628Z,22.01
2022-11-08T02:30:14.570Z,16.52
2022-11-08T02:31:17.083Z,18.27
2022-11-08T02:32:19.545Z,20.82
2022-11-08T02:33:22.029Z,20.94
2022-11-08T02:34:24.495Z,19.43
2022-11-08T02:35:26.966Z,25.27
2022-11-08T02:36:29.667Z,16.72
2022-11-08T02:37:32.128Z,23.89
2022-11-08T02:38:34.591Z,19.65
2022-11-08T02:39:36.954Z,23.05
2022-11-08T02:40:39.726Z,18.64
2022-11-08T02:41:42.211Z,19.71
2022-11-08T02:42:44.677Z,22.69
2022-11-08T02:43:47.143Z,19.05
2022-11-08T02:44:49.603Z,18.56
2022-11-08T02:45:52.062Z,20.35
2022-11-08T02:46:54.558Z,19.58
2022-11-08T02:47:57.026Z,27.57
2022-11-08T02:48:59.486Z,23.19
2022-11-08T02:50:01.852Z,25.43
2022-11-08T02:51:04.345Z,25.40
2022-11-08T02:52:06.756Z,18.86
2022-11-08T02:53:09.214Z,22.95
2022-11-08T02:54:11.576Z,21.71
2022-11-08T02:55:14.038Z,22.07
2022-11-08T02:56:17.042Z,23.55
2022-11-08T02:57:19.557Z,16.30
2022-11-08T02:58:22.056Z,19.74
2022-11-08T02:59:24.495Z,17.83
2022-11-08T03:00:27.063Z,19.05
2022-11-08T03:01:29.673Z,19.93
2022-11-08T03:02:32.487Z,19.15
2022-11-08T03:03:35.121Z,18.59
2022-11-08T03:04:37.585Z,23.39
2022-11-08T03:05:39.949Z,21.95
2022-11-08T03:06:42.423Z,18.84
2022-11-08T03:07:45.257Z,17.48
2022-11-08T03:08:47.722Z,20.52
2022-11-08T03:09:50.178Z,20.36
2022-11-08T03:10:52.845Z,21.89
2022-11-08T03:11:55.301Z,22.78
2022-11-08T03:12:57.816Z,22.95
2022-11-08T03:14:00.172Z,26.44
2022-11-08T03:15:02.565Z,19.65
2022-11-08T03:16:05.283Z,20.64
2022-11-08T03:17:07.639Z,19.86
2022-11-08T03:18:10.043Z,21.10
2022-11-08T03:19:12.498Z,22.25
2022-11-08T03:20:15.264Z,23.19
2022-11-08T03:21:17.657Z,21.51
2022-11-08T03:22:20.022Z,21.27
2022-11-08T03:23:22.417Z,22.11
2022-11-08T03:24:24.881Z,22.85
2022-11-08T03:25:27.241Z,20.37
2022-11-08T03:26:29.803Z,18.97
2022-11-08T03:27:32.263Z,20.55
2022-11-08T03:28:34.881Z,25.13
2022-11-08T03:29:37.339Z,19.43
2022-11-08T03:30:39.794Z,27.21
2022-11-08T03:31:42.153Z,23.14
2022-11-08T03:32:44.617Z,26.50
2022-11-08T03:33:47.103Z,24.53
2022-11-08T03:34:49.564Z,20.23
2022-11-08T03:35:51.924Z,21.29
2022-11-08T03:36:54.579Z,23.17
2022-11-08T03:37:57.045Z,21.75
2022-11-08T03:38:59.526Z,25.23
2022-11-08T03:40:01.892Z,25.45
2022-11-08T03:41:04.367Z,22.68
2022-11-08T03:42:06.842Z,24.33
2022-11-08T03:43:09.210Z,22.81
2022-11-08T03:44:11.684Z,22.17
2022-11-08T03:45:14.151Z,21.36
2022-11-08T03:46:16.804Z,21.95
2022-11-08T03:47:19.164Z,24.63
2022-11-08T03:48:21.754Z,18.94
2022-11-08T03:49:24.234Z,19.95
2022-11-08T03:50:26.896Z,20.55
2022-11-08T03:51:29.253Z,22.62
2022-11-08T03:52:31.603Z,28.84
2022-11-08T03:53:33.969Z,25.41
2022-11-08T03:54:36.382Z,24.71
2022-11-08T03:55:38.762Z,21.58
2022-11-08T03:56:41.341Z,20.27
2022-11-08T03:57:43.707Z,21.53
2022-11-08T03:58:46.151Z,23.86
2022-11-08T03:59:48.558Z,21.05
2022-11-08T04:00:51.197Z,23.12
2022-11-08T04:01:53.905Z,24.54
2022-11-08T04:02:56.436Z,21.22
2022-11-08T04:03:58.791Z,25.55
2022-11-08T04:05:01.175Z,23.47
2022-11-08T04:06:03.830Z,21.09
2022-11-08T04:07:06.208Z,24.01
2022-11-08T04:08:08.701Z,22.39
2022-11-08T04:09:11.080Z,26.65
2022-11-08T04:10:13.983Z,20.92
2022-11-08T04:11:16.436Z,22.81
2022-11-08T04:12:18.789Z,22.71
2022-11-08T04:13:21.150Z,20.19
2022-11-08T04:14:23.512Z,21.71
2022-11-08T04:15:25.901Z,19.52
2022-11-08T04:16:28.737Z,21.50
2022-11-08T04:17:31.327Z,23.29
2022-11-08T04:18:33.677Z,27.89
2022-11-08T04:19:36.049Z,24.17
2022-11-08T04:20:38.743Z,20.37
2022-11-08T04:21:41.198Z,21.67
2022-11-08T04:22:43.548Z,22.77
2022-11-08T04:23:45.920Z,23.60
2022-11-08T04:24:48.426Z,21.51
2022-11-08T04:25:50.897Z,25.18
2022-11-08T04:26:53.554Z,23.69
2022-11-08T04:27:55.913Z,21.45
2022-11-08T04:28:58.370Z,19.19
2022-11-08T04:30:00.731Z,19.49
2022-11-08T04:31:03.122Z,24.41
2022-11-08T04:32:05.475Z,21.31
2022-11-08T04:33:07.864Z,20.29
2022-11-08T04:34:10.575Z,23.26
2022-11-08T04:35:13.029Z,21.94
2022-11-08T04:36:15.746Z,25.30
2022-11-08T04:37:18.481Z,21.99
2022-11-08T04:38:21.219Z,20.51
2022-11-08T04:39:24.007Z,24.63
2022-11-08T04:40:26.677Z,22.77
2022-11-08T04:41:29.067Z,24.29
2022-11-08T04:42:31.537Z,21.11
2022-11-08T04:43:33.983Z,20.23
2022-11-08T04:44:36.346Z,30.53
2022-11-08T04:45:38.796Z,27.26
2022-11-08T04:46:41.285Z,21.83
2022-11-08T04:47:48.156Z,22.87
2022-11-08T04:48:48.017Z,26.86
2022-11-08T04:49:50.375Z,22.04
2022-11-08T04:50:52.726Z,25.07
2022-11-08T04:51:55.117Z,24.53
2022-11-08T04:52:57.578Z,23.73
2022-11-08T04:54:00.027Z,23.96
2022-11-08T04:55:02.492Z,24.37
2022-11-08T04:56:05.149Z,27.30
2022-11-08T04:57:07.533Z,24.13
2022-11-08T04:58:12.154Z,22.94
2022-11-08T04:59:14.545Z,23.14
2022-11-08T05:00:18.812Z,22.43
2022-11-08T05:01:21.294Z,23.53
2022-11-08T05:02:24.275Z,27.31
2022-11-08T05:03:28.061Z,24.38
2022-11-08T05:04:30.525Z,25.85
2022-11-08T05:05:32.905Z,28.23
2022-11-08T05:06:35.600Z,24.08
2022-11-08T05:07:38.005Z,46.61
2022-11-08T05:08:40.379Z,30.73
2022-11-08T05:09:42.841Z,33.15
2022-11-08T05:10:45.311Z,32.45
2022-11-08T05:11:47.769Z,33.91
2022-11-08T05:12:50.171Z,41.21
2022-11-08T05:13:52.533Z,40.51
2022-11-08T05:14:55.043Z,29.97
2022-11-08T05:15:57.515Z,44.98
2022-11-08T05:17:00.082Z,38.23
2022-11-08T05:18:02.509Z,49.98
2022-11-08T05:19:09.222Z,40.65
2022-11-08T05:20:09.748Z,43.13
2022-11-08T05:21:12.226Z,42.69
2022-11-08T05:22:14.687Z,52.69
2022-11-08T05:23:17.083Z,56.93
2022-11-08T05:24:19.552Z,43.34
2022-11-08T05:25:21.913Z,35.51
2022-11-08T05:26:24.469Z,53.44
2022-11-08T05:27:26.831Z,53.43
2022-11-08T05:28:29.336Z,51.38
2022-11-08T05:29:31.789Z,58.47
2022-11-08T05:30:34.251Z,77.81
2022-11-08T05:31:36.603Z,90.03
2022-11-08T05:32:38.955Z,52.33
2022-11-08T05:33:41.350Z,91.45
2022-11-08T05:34:43.709Z,73.77
2022-11-08T05:35:46.063Z,70.08
2022-11-08T05:36:48.719Z,66.91
2022-11-08T05:37:51.071Z,71.57
2022-11-08T05:38:53.478Z,79.38
2022-11-08T05:39:55.832Z,69.93
2022-11-08T05:40:58.396Z,81.09
2022-11-08T05:42:00.759Z,74.17
2022-11-08T05:43:03.211Z,90.16
2022-11-08T05:44:05.607Z,101.95
2022-11-08T05:45:09.412Z,93.02
2022-11-08T05:46:12.471Z,92.99
2022-11-08T05:47:14.933Z,94.67
2022-11-08T05:48:17.688Z,101.53
2022-11-08T05:49:20.498Z,117.24
2022-11-08T05:50:23.049Z,78.53
2022-11-08T05:51:25.708Z,86.51
2022-11-08T05:52:28.067Z,78.18
2022-11-08T05:53:30.525Z,92.14
2022-11-08T05:54:32.904Z,78.68
2022-11-08T05:55:35.272Z,88.51
2022-11-08T05:56:37.822Z,99.89
2022-11-08T05:57:40.183Z,139.32
2022-11-08T05:58:42.537Z,113.49
2022-11-08T05:59:44.919Z,109.29
2022-11-08T06:00:47.576Z,157.42
2022-11-08T06:01:50.144Z,176.74
2022-11-08T06:02:52.868Z,116.32
2022-11-08T06:03:55.627Z,110.16
2022-11-08T06:04:58.105Z,175.11
2022-11-08T06:06:00.465Z,143.69
2022-11-08T06:07:02.827Z,96.81
2022-11-08T06:08:05.284Z,94.01
2022-11-08T06:09:07.728Z,186.52
2022-11-08T06:10:11.056Z,151.07
2022-11-08T06:11:13.411Z,113.20
2022-11-08T06:12:15.780Z,115.67
2022-11-08T06:13:18.134Z,120.75
2022-11-08T06:14:20.684Z,113.34
2022-11-08T06:15:23.087Z,110.95
2022-11-08T06:16:25.558Z,106.29
2022-11-08T06:17:30.181Z,77.04
2022-11-08T06:18:32.492Z,99.19
2022-11-08T06:19:34.854Z,97.50
2022-11-08T06:20:37.435Z,79.03
2022-11-08T06:21:39.988Z,79.58
2022-11-08T06:22:43.367Z,85.22
2022-11-08T06:23:46.129Z,100.93
2022-11-08T06:24:48.552Z,70.03
2022-11-08T06:25:51.057Z,83.73
2022-11-08T06:26:54.014Z,74.22
2022-11-08T06:27:56.377Z,62.49
2022-11-08T06:28:58.732Z,92.10
2022-11-08T06:30:01.082Z,67.72
2022-11-08T06:31:03.969Z,118.92
2022-11-08T06:32:06.437Z,107.51
2022-11-08T06:33:08.799Z,82.29
2022-11-08T06:34:11.477Z,106.35
2022-11-08T06:35:13.905Z,145.05
2022-11-08T06:36:16.804Z,84.34
2022-11-08T06:37:19.158Z,116.42
2022-11-08T06:38:21.512Z,155.63
2022-11-08T06:39:23.866Z,61.69
2022-11-08T06:40:26.331Z,98.15
2022-11-08T06:41:28.850Z,56.12
2022-11-08T06:42:31.299Z,95.19
2022-11-08T06:43:33.665Z,51.33
2022-11-08T06:44:36.023Z,95.25
2022-11-08T06:45:38.481Z,92.82
2022-11-08T06:46:41.094Z,95.43
2022-11-08T06:47:43.448Z,123.07
2022-11-08T06:48:45.914Z,58.84
2022-11-08T06:49:48.368Z,94.14
2022-11-08T06:50:51.136Z,84.99
2022-11-08T06:51:53.617Z,75.05
2022-11-08T06:52:56.077Z,47.21
2022-11-08T06:53:58.437Z,40.19
2022-11-08T06:55:00.894Z,40.40
2022-11-08T06:56:03.568Z,59.50
2022-11-08T06:57:06.047Z,47.17
2022-11-08T06:58:08.425Z,41.23
2022-11-08T06:59:10.872Z,59.91
2022-11-08T07:00:14.867Z,51.12
2022-11-08T07:01:17.389Z,53.87
2022-11-08T07:02:20.058Z,60.19
2022-11-08T07:03:22.532Z,66.79
2022-11-08T07:04:24.886Z,52.63
2022-11-08T07:05:27.241Z,44.13
2022-11-08T07:06:30.211Z,43.38
2022-11-08T07:07:32.645Z,46.31
2022-11-08T07:08:35.018Z,56.71
2022-11-08T07:09:37.993Z,68.34
2022-11-08T07:10:40.399Z,55.91
2022-11-08T07:11:42.871Z,48.19
2022-11-08T07:12:45.270Z,46.09
2022-11-08T07:13:47.732Z,43.15
2022-11-08T07:14:50.194Z,42.32
2022-11-08T07:15:52.653Z,65.56
2022-11-08T07:16:55.421Z,40.72
2022-11-08T07:17:57.909Z,39.74
2022-11-08T07:19:00.464Z,38.90
2022-11-08T07:20:03.118Z,41.58
2022-11-08T07:21:05.479Z,44.64
2022-11-08T07:22:07.833Z,45.40
2022-11-08T07:23:10.812Z,51.18
2022-11-08T07:24:13.171Z,64.67
2022-11-08T07:25:15.526Z,66.02
2022-11-08T07:26:18.181Z,91.20
2022-11-08T07:27:20.579Z,61.93
2022-11-08T07:28:23.053Z,70.48
2022-11-08T07:29:25.508Z,55.03
2022-11-08T07:30:27.973Z,48.47
2022-11-08T07:31:30.441Z,53.87
2022-11-08T07:32:32.906Z,42.27
2022-11-08T07:33:35.406Z,47.87
2022-11-08T07:34:37.862Z,34.77
2022-11-08T07:35:40.217Z,47.45
2022-11-08T07:36:42.774Z,49.66
2022-11-08T07:37:45.132Z,49.09
2022-11-08T07:38:47.625Z,84.51
2022-11-08T07:39:50.087Z,95.61
2022-11-08T07:40:52.856Z,78.80
2022-11-08T07:41:55.320Z,80.74
2022-11-08T07:43:11.312Z,63.85
2022-11-08T07:44:02.093Z,67.03
2022-11-08T07:45:04.458Z,70.62
2022-11-08T07:46:07.035Z,61.81
2022-11-08T07:47:09.499Z,56.58
2022-11-08T07:48:13.122Z,65.91
2022-11-08T07:49:16.128Z,66.72
2022-11-08T07:50:19.302Z,79.34
2022-11-08T07:51:21.672Z,61.25
2022-11-08T07:52:24.031Z,71.19
2022-11-08T07:53:26.398Z,53.51
2022-11-08T07:54:28.893Z,65.97
2022-11-08T07:55:31.353Z,47.24
2022-11-08T07:56:34.126Z,45.98
2022-11-08T07:57:36.588Z,61.33
2022-11-08T07:58:39.057Z,47.93
2022-11-08T07:59:41.556Z,56.87
2022-11-08T08:00:47.004Z,56.93
2022-11-08T08:01:49.554Z,57.96
2022-11-08T08:02:52.043Z,61.80
2022-11-08T08:03:54.663Z,54.41
2022-11-08T08:04:57.164Z,60.13
2022-11-08T08:06:01.218Z,50.80
2022-11-08T08:07:03.824Z,58.28
2022-11-08T08:08:06.288Z,51.21
2022-11-08T08:09:08.743Z,48.79
2022-11-08T08:10:12.857Z,42.68
2022-11-08T08:11:15.319Z,60.23
2022-11-08T08:12:17.794Z,64.03
2022-11-08T08:13:20.681Z,66.46
2022-11-08T08:14:23.448Z,53.81
2022-11-08T08:15:25.946Z,67.34
2022-11-08T08:16:28.838Z,67.82
2022-11-08T08:17:31.317Z,57.15
2022-11-08T08:18:33.672Z,60.10
2022-11-08T08:19:36.153Z,60.89
2022-11-08T08:20:38.873Z,58.58
2022-11-08T08:21:41.336Z,50.99
2022-11-08T08:22:43.699Z,52.80
2022-11-08T08:23:46.160Z,45.65
2022-11-08T08:24:48.539Z,60.06
2022-11-08T08:25:50.941Z,54.89
2022-11-08T08:26:53.601Z,65.85
2022-11-08T08:27:56.063Z,48.82
2022-11-08T08:28:58.436Z,55.15
2022-11-08T08:30:00.800Z,57.05
2022-11-08T08:31:03.309Z,56.13
2022-11-08T08:32:05.669Z,41.45
2022-11-08T08:33:33.984Z,44.13
2022-11-08T08:34:12.338Z,37.45
2022-11-08T08:35:14.805Z,43.43
2022-11-08T08:36:17.738Z,38.00
2022-11-08T08:37:20.097Z,38.55
2022-11-08T08:38:22.475Z,44.18
2022-11-08T08:39:24.947Z,40.32
2022-11-08T08:40:27.716Z,43.39
2022-11-08T08:41:30.102Z,42.37
2022-11-08T08:42:32.564Z,38.08
2022-11-08T08:43:34.927Z,41.18
2022-11-08T08:44:37.392Z,38.22
2022-11-08T08:45:39.850Z,52.11
2022-11-08T08:46:42.535Z,42.75
2022-11-08T08:47:45.000Z,41.45
2022-11-08T08:48:47.470Z,34.71
2022-11-08T08:49:49.935Z,36.83
2022-11-08T08:50:52.631Z,39.19
2022-11-08T08:51:55.132Z,54.36
2022-11-08T08:52:57.493Z,55.58
2022-11-08T08:53:59.875Z,48.47
2022-11-08T08:55:02.368Z,53.49
2022-11-08T08:56:05.028Z,53.13
2022-11-08T08:57:07.433Z,42.80
2022-11-08T08:58:09.898Z,42.29
2022-11-08T09:02:25.528Z,46.30
2022-11-08T09:03:27.993Z,44.67
2022-11-08T09:04:30.477Z,36.23
2022-11-08T09:05:32.950Z,34.96
2022-11-08T09:06:35.760Z,33.30
2022-11-08T09:07:38.236Z,35.45
2022-11-08T09:08:40.598Z,34.78
2022-11-08T09:09:43.069Z,32.55
2022-11-08T09:10:45.730Z,31.95
2022-11-08T09:11:48.096Z,34.29
2022-11-08T09:12:50.605Z,39.69
2022-11-08T09:13:53.070Z,33.66
2022-11-08T09:14:55.561Z,42.00
2022-11-08T09:15:58.000Z,46.01
2022-11-08T09:17:00.561Z,43.00
2022-11-08T09:18:03.157Z,41.07
2022-11-08T09:19:05.843Z,33.16
2022-11-08T09:20:08.653Z,42.23
2022-11-08T09:21:11.057Z,38.71
2022-11-08T09:22:13.435Z,41.81
2022-11-08T09:23:16.212Z,50.87
2022-11-08T09:24:19.234Z,38.83
2022-11-08T09:25:21.596Z,41.00
2022-11-08T09:26:24.274Z,38.33
2022-11-08T09:27:26.648Z,38.61
2022-11-08T09:28:31.448Z,39.77
2022-11-08T09:29:33.344Z,45.03
2022-11-08T09:30:36.112Z,40.09
2022-11-08T09:31:38.567Z,35.38
2022-11-08T09:33:45.358Z,31.98
2022-11-08T09:34:47.825Z,34.35
2022-11-08T09:35:50.291Z,32.27
2022-11-08T09:36:52.777Z,41.42
2022-11-08T09:37:55.217Z,53.86
2022-11-08T09:38:57.779Z,37.53
2022-11-08T09:40:00.260Z,40.23
2022-11-08T09:41:02.742Z,39.99
2022-11-08T09:42:05.215Z,40.71
2022-11-08T09:43:07.668Z,41.03
2022-11-08T09:44:10.106Z,39.93
2022-11-08T09:45:12.555Z,44.71
2022-11-08T09:46:15.232Z,29.18
2022-11-08T09:47:17.702Z,27.69
2022-11-08T09:48:20.159Z,27.35
2022-11-08T09:49:22.556Z,25.21
2022-11-08T09:50:25.318Z,29.62
2022-11-08T09:51:27.787Z,29.82
2022-11-08T09:52:30.254Z,27.89
2022-11-08T09:53:32.610Z,31.25
2022-11-08T09:54:35.015Z,33.66
2022-11-08T09:55:37.371Z,28.21
2022-11-08T09:56:39.828Z,33.75
2022-11-08T09:57:42.188Z,30.09
2022-11-08T09:58:44.647Z,36.14
2022-11-08T09:59:47.036Z,31.67
2022-11-08T10:00:49.591Z,38.07
2022-11-08T10:01:52.083Z,40.47
2022-11-08T10:02:54.568Z,43.55
2022-11-08T10:03:56.925Z,36.51
2022-11-08T10:04:59.312Z,45.23
2022-11-08T10:06:01.671Z,39.50
2022-11-08T10:07:04.180Z,32.83
2022-11-08T10:08:06.706Z,33.99
2022-11-08T10:09:09.143Z,41.01
2022-11-08T10:10:13.059Z,34.98
2022-11-08T10:11:15.418Z,40.57
2022-11-08T10:12:17.873Z,37.23
2022-11-08T10:13:20.576Z,32.33
2022-11-08T10:14:23.385Z,34.25
2022-11-08T10:15:25.875Z,35.85
2022-11-08T10:16:28.635Z,36.00
2022-11-08T10:17:30.987Z,48.83
2022-11-08T10:18:33.350Z,24.24
2022-11-08T10:19:35.700Z,24.46
2022-11-08T10:20:38.198Z,21.69
2022-11-08T10:21:40.636Z,24.90
2022-11-08T10:22:43.085Z,26.26
2022-11-08T10:23:45.444Z,26.91
2022-11-08T10:24:47.808Z,28.73
2022-11-08T10:25:50.269Z,23.49
2022-11-08T10:26:52.959Z,31.59
2022-11-08T10:27:55.414Z,22.51
2022-11-08T10:29:03.615Z,22.72
2022-11-08T10:30:06.482Z,26.29
2022-11-08T10:31:08.973Z,27.43
2022-11-08T10:32:11.439Z,29.21
2022-11-08T10:33:13.795Z,32.52
2022-11-08T10:34:16.154Z,27.95
2022-11-08T10:35:18.515Z,29.70
2022-11-08T10:36:21.299Z,23.89
2022-11-08T10:37:23.696Z,25.10
2022-11-08T10:38:26.051Z,24.25
2022-11-08T10:39:28.923Z,24.62
2022-11-08T10:40:31.595Z,24.83
2022-11-08T10:41:34.081Z,24.88
2022-11-08T10:42:36.543Z,25.61
2022-11-08T10:43:38.898Z,27.33
2022-11-08T10:44:41.254Z,32.11
2022-11-08T10:45:43.624Z,32.19
2022-11-08T10:46:46.121Z,29.91
2022-11-08T10:47:48.490Z,32.05
2022-11-08T10:48:50.948Z,31.30
2022-11-08T10:49:53.307Z,32.43
2022-11-08T10:50:55.856Z,34.99
2022-11-08T10:51:58.347Z,29.89
2022-11-08T10:53:00.834Z,29.01
2022-11-08T10:54:03.184Z,30.71
2022-11-08T10:55:05.655Z,33.65
2022-11-08T10:56:09.217Z,43.61
2022-11-08T10:57:11.707Z,43.07
2022-11-08T10:58:14.187Z,36.50
2022-11-08T10:59:16.552Z,34.65
2022-11-08T11:00:19.211Z,36.66
2022-11-08T11:01:21.620Z,55.81
2022-11-08T11:02:24.515Z,42.18
2022-11-08T11:03:27.243Z,38.33
2022-11-08T11:04:29.712Z,34.03
2022-11-08T11:05:32.074Z,29.39
2022-11-08T11:06:34.663Z,30.21
2022-11-08T11:07:37.340Z,35.54
2022-11-08T11:08:39.711Z,45.89
2022-11-08T11:09:42.076Z,33.31
2022-11-08T11:10:44.727Z,36.36
2022-11-08T11:11:47.085Z,31.39
2022-11-08T11:12:49.498Z,35.39
2022-11-08T11:13:51.954Z,36.12
2022-11-08T11:14:54.320Z,30.70
2022-11-08T11:15:56.799Z,31.21
2022-11-08T11:16:59.447Z,90.67
2022-11-08T11:18:01.946Z,58.82
2022-11-08T11:19:04.410Z,34.42
2022-11-08T11:20:07.172Z,34.36
2022-11-08T11:21:09.634Z,33.29
2022-11-08T11:22:12.101Z,42.41
2022-11-08T11:23:14.617Z,42.65
2022-11-08T11:24:19.416Z,35.85
2022-11-08T11:25:21.391Z,34.78
2022-11-08T11:26:24.195Z,35.45
2022-11-08T11:27:26.636Z,32.35
2022-11-08T11:28:29.164Z,46.01
2022-11-08T11:29:31.615Z,37.25
2022-11-08T11:30:34.170Z,33.35
2022-11-08T11:31:36.627Z,37.59
2022-11-08T11:32:38.984Z,32.39
2022-11-08T11:33:41.369Z,35.94
2022-11-08T11:34:43.835Z,33.81
2022-11-08T11:35:46.196Z,34.48
2022-11-08T11:36:48.650Z,35.62
2022-11-08T11:37:51.007Z,40.37
2022-11-08T11:38:53.399Z,28.83
2022-11-08T11:39:55.766Z,36.05
2022-11-08T11:40:58.456Z,40.01
2022-11-08T11:42:17.688Z,35.22
2022-11-08T11:43:05.366Z,40.16
2022-11-08T11:44:07.785Z,42.91
2022-11-08T11:45:10.247Z,42.28
2022-11-08T11:46:13.033Z,42.96
2022-11-08T11:47:15.407Z,42.41
2022-11-08T11:48:18.284Z,39.75
2022-11-08T11:49:21.481Z,49.12
2022-11-08T11:50:23.939Z,46.94
2022-11-08T11:51:26.462Z,43.19
2022-11-08T11:52:29.064Z,50.00
2022-11-08T11:53:31.446Z,42.94
2022-11-08T11:54:33.980Z,44.83
2022-11-08T11:55:36.437Z,46.67
2022-11-08T11:56:39.096Z,41.55
2022-11-08T11:57:41.456Z,43.23
2022-11-08T11:58:43.822Z,50.01
2022-11-08T11:59:46.339Z,45.41
2022-11-08T12:00:48.898Z,40.86
2022-11-08T12:01:51.295Z,50.19
2022-11-08T12:02:53.706Z,48.99
2022-11-08T12:03:56.097Z,45.82
2022-11-08T12:04:58.499Z,42.64
2022-11-08T12:06:00.880Z,48.01
2022-11-08T12:07:05.432Z,43.06
2022-11-08T12:08:07.661Z,46.27
2022-11-08T12:09:10.039Z,44.78
2022-11-08T12:10:13.338Z,46.16
2022-11-08T12:11:15.860Z,49.18
2022-11-08T12:12:18.309Z,39.65
2022-11-08T12:13:20.781Z,41.04
2022-11-08T12:14:23.242Z,47.25
2022-11-08T12:15:25.789Z,42.60
2022-11-08T12:16:28.697Z,44.50
2022-11-08T12:17:31.195Z,39.59
2022-11-08T12:18:49.193Z,38.01
2022-11-08T12:19:37.835Z,44.64
2022-11-08T12:20:40.256Z,43.64
2022-11-08T12:21:42.743Z,40.15
2022-11-08T12:22:45.212Z,42.20
2022-11-08T12:23:48.090Z,48.25
2022-11-08T12:24:50.630Z,67.71
2022-11-08T12:25:53.236Z,57.98
2022-11-08T12:26:55.915Z,66.55
2022-11-08T12:27:58.389Z,50.79
2022-11-08T12:29:01.062Z,45.81
2022-11-08T12:30:04.216Z,39.69
2022-11-08T12:31:06.729Z,33.87
2022-11-08T12:32:09.187Z,41.18
2022-11-08T12:33:11.656Z,43.61
2022-11-08T12:34:14.125Z,39.86
2022-11-08T12:35:16.587Z,44.63
2022-11-08T12:36:19.296Z,43.53
2022-11-08T12:37:21.660Z,41.15
2022-11-08T12:38:24.049Z,57.72
2022-11-08T12:39:26.504Z,50.07
2022-11-08T12:40:29.114Z,43.11
2022-11-08T12:41:31.519Z,44.95
2022-11-08T12:42:33.983Z,44.11
2022-11-08T12:43:36.454Z,43.66
2022-11-08T12:44:38.944Z,51.73
2022-11-08T12:45:41.307Z,57.89
2022-11-08T12:46:44.202Z,43.73
2022-11-08T12:47:46.568Z,53.69
2022-11-08T12:48:49.277Z,64.47
2022-11-08T12:49:51.687Z,45.62
2022-11-08T12:50:58.838Z,46.37
2022-11-08T12:51:59.217Z,55.29
2022-11-08T12:53:01.583Z,44.11
2022-11-08T12:54:04.056Z,46.60
2022-11-08T12:55:06.551Z,50.59
2022-11-08T12:56:10.637Z,60.42
2022-11-08T12:57:13.180Z,50.35
2022-11-08T12:58:15.755Z,57.17
2022-11-08T12:59:18.310Z,56.21
2022-11-08T13:00:20.975Z,54.01
2022-11-08T13:01:24.963Z,53.53
2022-11-08T13:02:27.544Z,52.81
2022-11-08T13:03:30.118Z,56.45
2022-11-08T13:04:32.583Z,54.09
2022-11-08T13:05:35.044Z,49.83
2022-11-08T13:06:37.627Z,47.12
2022-11-08T13:07:40.144Z,54.37
2022-11-08T13:08:42.607Z,52.68
2022-11-08T13:09:45.120Z,58.19
2022-11-08T13:10:48.007Z,53.82
2022-11-08T13:11:50.459Z,50.36
2022-11-08T13:12:52.898Z,55.22
2022-11-08T13:13:55.362Z,49.45
2022-11-08T13:14:57.823Z,58.31
2022-11-08T13:16:00.351Z,64.88
2022-11-08T13:17:02.849Z,66.75
2022-11-08T13:18:05.343Z,54.58
2022-11-08T13:19:07.812Z,55.65
2022-11-08T13:20:12.104Z,64.06
2022-11-08T13:21:14.581Z,58.99
2022-11-08T13:22:17.051Z,64.89
2022-11-08T13:23:19.586Z,55.01
2022-11-08T13:24:43.296Z,60.64
2022-11-08T13:25:26.349Z,57.39
2022-11-08T13:26:29.031Z,68.06
2022-11-08T13:27:31.539Z,51.09
2022-11-08T13:28:34.012Z,61.03